createdAt,value
2019-02-19T00:01:38.370Z,84.70
2019-02-19T00:04:08.554Z,84.60
2019-02-19T00:06:40.359Z,85.00
2019-02-19T00:09:10.959Z,85.10
2019-02-19T00:11:41.873Z,85.50
2019-02-19T00:14:12.741Z,85.80
2019-02-19T00:16:42.983Z,85.70
2019-02-19T00:19:14.325Z,85.70
2019-02-19T00:21:47.063Z,85.80
2019-02-19T00:24:18.815Z,85.50
2019-02-19T00:26:49.692Z,85.10
2019-02-19T00:29:19.988Z,84.90
2019-02-19T00:31:51.884Z,85.50
2019-02-19T00:34:24.164Z,85.70
2019-02-19T00:36:54.872Z,85.90
2019-02-19T00:39:25.802Z,85.90
2019-02-19T00:41:55.435Z,85.40
2019-02-19T00:44:25.483Z,85.10
2019-02-19T00:46:55.854Z,85.00
2019-02-19T00:49:27.301Z,84.80
2019-02-19T00:51:58.654Z,84.80
2019-02-19T00:54:30.094Z,85.40
2019-02-19T00:57:04.517Z,84.90
2019-02-19T00:59:34.336Z,85.00
2019-02-19T01:02:06.072Z,85.40
2019-02-19T01:04:36.024Z,85.20
2019-02-19T01:07:09.783Z,85.00
2019-02-19T01:09:40.709Z,84.90
2019-02-19T01:12:11.940Z,85.00
2019-02-19T01:17:13.911Z,85.20
2019-02-19T01:19:44.836Z,85.20
2019-02-19T01:22:15.582Z,85.20
2019-02-19T01:24:48.436Z,85.50
2019-02-19T01:27:20.063Z,85.00
2019-02-19T01:29:49.795Z,85.30
2019-02-19T01:32:20.734Z,85.20
2019-02-19T01:34:50.297Z,85.00
2019-02-19T01:37:19.518Z,85.80
2019-02-19T01:39:50.836Z,85.30
2019-02-19T01:42:21.635Z,85.70
2019-02-19T01:44:52.422Z,85.30
2019-02-19T01:47:25.048Z,85.30
2019-02-19T01:49:55.675Z,85.30
2019-02-19T01:52:28.808Z,85.10
2019-02-19T01:54:58.431Z,85.30
2019-02-19T01:57:29.964Z,85.30
2019-02-19T02:00:00.037Z,85.70
2019-02-19T02:02:31.458Z,85.00
2019-02-19T02:05:02.934Z,85.30
2019-02-19T02:07:35.764Z,85.40
2019-02-19T02:10:07.730Z,85.10
2019-02-19T02:12:38.186Z,84.90
2019-02-19T02:15:08.999Z,84.90
2019-02-19T02:17:39.879Z,85.00
2019-02-19T02:20:09.885Z,85.20
2019-02-19T02:22:42.272Z,84.90
2019-02-19T02:25:14.515Z,85.00
2019-02-19T02:27:45.995Z,84.90
2019-02-19T02:30:15.736Z,85.10
2019-02-19T02:32:47.573Z,85.50
2019-02-19T02:35:22.001Z,85.60
2019-02-19T02:37:53.350Z,86.10
2019-02-19T02:40:23.539Z,85.80
2019-02-19T02:42:53.261Z,85.70
2019-02-19T02:45:22.883Z,85.60
2019-02-19T02:47:53.207Z,85.70
2019-02-19T02:50:23.774Z,85.90
2019-02-19T02:52:53.258Z,86.10
2019-02-19T02:55:24.002Z,86.80
2019-02-19T02:57:54.395Z,86.80
2019-02-19T03:00:25.003Z,86.20
2019-02-19T03:02:55.309Z,86.90
2019-02-19T03:05:26.354Z,86.80
2019-02-19T03:07:57.095Z,86.40
2019-02-19T03:10:28.535Z,86.80
2019-02-19T03:12:59.732Z,86.80
2019-02-19T03:15:30.318Z,86.50
2019-02-19T03:18:02.430Z,86.70
2019-02-19T03:20:33.547Z,86.40
2019-02-19T03:23:05.718Z,86.30
2019-02-19T03:25:36.155Z,86.10
2019-02-19T03:28:08.957Z,86.00
2019-02-19T03:30:39.207Z,86.90
2019-02-19T03:33:10.653Z,86.50
2019-02-19T03:35:41.303Z,87.10
2019-02-19T03:38:12.594Z,87.10
2019-02-19T03:40:43.847Z,88.60
2019-02-19T03:43:14.157Z,88.10
2019-02-19T03:45:43.771Z,87.70
2019-02-19T03:48:14.842Z,87.80
2019-02-19T03:50:46.557Z,88.20
2019-02-19T03:53:16.278Z,88.50
2019-02-19T03:55:48.345Z,88.40
2019-02-19T03:58:18.722Z,88.20
2019-02-19T04:00:49.963Z,87.90
2019-02-19T04:03:22.035Z,87.80
2019-02-19T04:05:56.650Z,88.20
2019-02-19T04:08:27.882Z,87.80
2019-02-19T04:10:59.768Z,88.60
2019-02-19T04:13:30.350Z,88.50
2019-02-19T04:15:59.631Z,88.80
2019-02-19T04:18:28.394Z,88.80
2019-02-19T04:21:01.170Z,88.60
2019-02-19T04:23:31.841Z,88.70
2019-02-19T04:26:02.719Z,88.20
2019-02-19T04:28:34.132Z,88.10
2019-02-19T04:31:05.603Z,88.20
2019-02-19T04:33:37.542Z,88.00
2019-02-19T04:36:08.904Z,88.10
2019-02-19T04:38:40.270Z,87.40
2019-02-19T04:41:12.755Z,88.20
2019-02-19T04:43:44.530Z,87.90
2019-02-19T04:46:14.833Z,87.90
2019-02-19T04:48:47.466Z,87.00
2019-02-19T04:51:17.574Z,87.60
2019-02-19T04:53:48.434Z,87.50
2019-02-19T04:56:19.043Z,86.80
2019-02-19T04:58:51.735Z,87.50
2019-02-19T05:01:22.739Z,88.30
2019-02-19T05:03:52.016Z,87.50
2019-02-19T05:06:23.229Z,87.30
2019-02-19T05:08:53.569Z,87.30
2019-02-19T05:11:24.888Z,87.40
2019-02-19T05:13:55.354Z,87.40
2019-02-19T05:16:25.105Z,86.90
2019-02-19T05:18:56.787Z,87.10
2019-02-19T05:21:27.004Z,87.20
2019-02-19T05:23:58.524Z,87.60
2019-02-19T05:26:30.039Z,87.20
2019-02-19T05:29:02.873Z,87.10
2019-02-19T05:31:33.691Z,87.50
2019-02-19T05:34:04.233Z,88.30
2019-02-19T05:36:34.558Z,88.50
2019-02-19T05:39:05.357Z,88.20
2019-02-19T05:41:36.343Z,87.90
2019-02-19T05:44:08.562Z,87.90
2019-02-19T05:46:38.786Z,88.30
2019-02-19T05:49:09.834Z,88.50
2019-02-19T05:51:41.879Z,88.50
2019-02-19T05:54:11.553Z,88.40
2019-02-19T05:56:45.178Z,88.20
2019-02-19T05:59:16.729Z,87.90
2019-02-19T06:01:48.017Z,87.60
2019-02-19T06:04:18.341Z,87.80
2019-02-19T06:06:48.004Z,88.00
2019-02-19T06:09:18.919Z,88.70
2019-02-19T06:11:49.264Z,88.80
2019-02-19T06:14:21.015Z,88.50
2019-02-19T06:16:58.297Z,88.30
2019-02-19T06:19:25.983Z,88.50
2019-02-19T06:22:00.146Z,88.40
2019-02-19T06:24:31.041Z,88.30
2019-02-19T06:27:03.852Z,87.90
2019-02-19T06:29:34.944Z,87.90
2019-02-19T06:32:04.586Z,87.90
2019-02-19T06:34:36.189Z,87.60
2019-02-19T06:37:08.079Z,87.50
2019-02-19T06:39:39.151Z,87.10
2019-02-19T06:42:10.074Z,87.50
2019-02-19T06:44:41.946Z,87.20
2019-02-19T06:47:13.178Z,87.40
2019-02-19T06:49:45.890Z,87.60
2019-02-19T06:52:16.372Z,87.90
2019-02-19T06:54:48.620Z,87.90
2019-02-19T06:57:20.070Z,88.30
2019-02-19T06:59:50.963Z,88.40
2019-02-19T07:02:39.868Z,88.40
2019-02-19T07:05:11.596Z,88.70
2019-02-19T07:07:41.926Z,88.70
2019-02-19T07:10:12.807Z,88.20
2019-02-19T07:12:46.265Z,87.70
2019-02-19T07:15:16.002Z,88.60
2019-02-19T07:17:47.680Z,88.50
2019-02-19T07:20:18.171Z,88.70
2019-02-19T07:22:49.060Z,88.50
2019-02-19T07:25:19.690Z,88.10
2019-02-19T07:27:51.178Z,87.90
2019-02-19T07:30:23.426Z,87.50
2019-02-19T07:32:53.831Z,87.10
2019-02-19T07:35:24.603Z,86.10
2019-02-19T07:37:56.651Z,86.80
2019-02-19T07:40:28.082Z,86.50
2019-02-19T07:42:59.016Z,86.40
2019-02-19T07:45:30.573Z,85.70
2019-02-19T07:48:02.148Z,86.60
2019-02-19T07:50:36.018Z,86.60
2019-02-19T07:53:09.919Z,87.40
2019-02-19T07:55:41.183Z,87.70
2019-02-19T07:58:13.167Z,87.30
2019-02-19T08:00:43.992Z,87.10
2019-02-19T08:03:16.787Z,86.40
2019-02-19T08:05:48.163Z,86.00
2019-02-19T08:08:17.877Z,85.70
2019-02-19T08:10:50.867Z,84.50
2019-02-19T08:13:20.683Z,83.10
2019-02-19T08:15:50.839Z,82.70
2019-02-19T08:18:26.694Z,81.20
2019-02-19T08:20:56.976Z,80.60
2019-02-19T08:23:27.257Z,79.90
2019-02-19T08:25:58.707Z,80.40
2019-02-19T08:28:28.453Z,79.00
2019-02-19T08:30:58.039Z,78.50
2019-02-19T08:33:29.261Z,78.10
2019-02-19T08:36:00.457Z,78.00
2019-02-19T08:38:31.560Z,77.00
2019-02-19T08:41:02.569Z,72.50
2019-02-19T08:43:32.530Z,67.60
2019-02-19T08:46:06.547Z,63.10
2019-02-19T08:48:38.000Z,62.20
2019-02-19T08:51:08.477Z,59.90
2019-02-19T08:53:42.059Z,56.00
2019-02-19T08:56:12.968Z,53.70
2019-02-19T08:58:44.025Z,54.30
2019-02-19T09:01:14.986Z,54.10
2019-02-19T09:03:46.863Z,52.50
2019-02-19T09:06:16.280Z,52.10
2019-02-19T09:08:45.895Z,52.10
2019-02-19T09:11:17.004Z,53.70
2019-02-19T09:13:48.453Z,54.80
2019-02-19T09:16:18.799Z,55.90
2019-02-19T09:18:51.114Z,58.20
2019-02-19T09:21:22.852Z,58.90
2019-02-19T09:23:53.511Z,60.00
2019-02-19T09:26:25.907Z,60.00
2019-02-19T09:28:57.799Z,60.10
2019-02-19T09:31:28.872Z,58.80
2019-02-19T09:34:00.290Z,60.40
2019-02-19T09:36:30.816Z,61.20
2019-02-19T09:39:02.994Z,61.90
2019-02-19T09:41:33.358Z,62.40
2019-02-19T09:44:04.239Z,62.40
2019-02-19T09:46:35.891Z,62.00
2019-02-19T09:49:06.707Z,62.40
2019-02-19T09:51:37.807Z,60.90
2019-02-19T09:54:09.374Z,60.40
2019-02-19T09:56:39.619Z,61.40
2019-02-19T09:59:11.024Z,61.50
2019-02-19T10:01:41.934Z,60.40
2019-02-19T10:04:12.634Z,61.50
2019-02-19T10:06:44.848Z,61.60
2019-02-19T10:09:17.717Z,59.80
2019-02-19T10:11:48.514Z,58.90
2019-02-19T10:14:20.001Z,59.40
2019-02-19T10:16:49.708Z,59.90
2019-02-19T10:19:21.660Z,59.60
2019-02-19T10:21:54.566Z,59.60
2019-02-19T10:24:25.997Z,58.80
2019-02-19T10:26:57.499Z,58.70
2019-02-19T10:29:29.321Z,54.70
2019-02-19T10:32:00.383Z,54.70
2019-02-19T10:34:30.119Z,54.10
2019-02-19T10:37:01.395Z,54.50
2019-02-19T10:39:32.152Z,52.80
2019-02-19T10:42:01.829Z,51.50
2019-02-19T10:44:32.217Z,52.20
2019-02-19T10:47:03.137Z,52.40
2019-02-19T10:49:36.158Z,52.70
2019-02-19T10:52:07.743Z,52.30
2019-02-19T10:54:38.614Z,52.70
2019-02-19T10:57:08.323Z,49.50
2019-02-19T10:59:39.876Z,50.80
2019-02-19T11:02:13.262Z,50.40
2019-02-19T11:04:44.609Z,48.30
2019-02-19T11:07:16.050Z,49.80
2019-02-19T11:09:47.479Z,50.00
2019-02-19T11:12:18.906Z,49.10
2019-02-19T11:14:50.530Z,49.10
2019-02-19T11:17:21.523Z,48.80
2019-02-19T11:19:52.977Z,46.50
2019-02-19T11:22:25.958Z,47.60
2019-02-19T11:24:58.416Z,48.50
2019-02-19T11:27:28.682Z,50.60
2019-02-19T11:29:58.853Z,49.20
2019-02-19T11:32:29.060Z,49.70
2019-02-19T11:34:58.129Z,47.10
2019-02-19T11:37:32.115Z,45.90
2019-02-19T11:40:04.279Z,45.10
2019-02-19T11:42:36.178Z,44.00
2019-02-19T11:45:10.192Z,43.60
2019-02-19T11:47:41.606Z,41.30
2019-02-19T11:50:13.215Z,41.10
2019-02-19T11:52:46.651Z,43.40
2019-02-19T11:55:18.360Z,43.90
2019-02-19T11:57:52.367Z,42.80
2019-02-19T12:00:40.015Z,41.50
2019-02-19T12:03:10.327Z,42.50
2019-02-19T12:05:41.338Z,41.30
2019-02-19T12:08:12.166Z,41.30
2019-02-19T12:10:43.130Z,41.60
2019-02-19T12:13:15.361Z,42.70
2019-02-19T12:15:47.063Z,44.40
2019-02-19T12:18:18.445Z,41.80
2019-02-19T12:20:50.028Z,41.60
2019-02-19T12:23:20.989Z,41.60
2019-02-19T12:25:52.187Z,40.80
2019-02-19T12:28:23.282Z,41.50
2019-02-19T12:30:55.051Z,41.70
2019-02-19T12:33:28.619Z,41.10
2019-02-19T12:36:00.735Z,44.30
2019-02-19T12:38:31.162Z,44.30
2019-02-19T12:41:01.420Z,41.80
2019-02-19T12:43:33.127Z,42.70
2019-02-19T12:46:04.468Z,43.70
2019-02-19T12:48:37.399Z,43.50
2019-02-19T12:51:09.025Z,43.20
2019-02-19T12:53:41.949Z,42.90
2019-02-19T12:56:14.853Z,42.40
2019-02-19T12:58:44.702Z,42.20
2019-02-19T13:01:16.145Z,41.70
2019-02-19T13:03:46.592Z,42.00
2019-02-19T13:06:16.896Z,41.80
2019-02-19T13:08:48.087Z,42.60
2019-02-19T13:11:18.864Z,42.60
2019-02-19T13:13:50.402Z,42.70
2019-02-19T13:16:22.423Z,41.50
2019-02-19T13:19:03.019Z,41.80
2019-02-19T13:21:27.314Z,42.30
2019-02-19T13:23:58.325Z,43.00
2019-02-19T13:26:28.833Z,43.00
2019-02-19T13:28:58.584Z,43.10
2019-02-19T13:31:30.616Z,42.70
2019-02-19T13:34:00.881Z,42.00
2019-02-19T13:36:32.953Z,42.10
2019-02-19T13:39:06.822Z,41.40
2019-02-19T13:41:38.307Z,41.80
2019-02-19T13:44:09.765Z,42.30
2019-02-19T13:46:43.718Z,42.00
2019-02-19T13:49:12.947Z,43.00
2019-02-19T13:51:44.210Z,44.50
2019-02-19T13:54:16.655Z,45.30
2019-02-19T13:56:48.199Z,44.70
2019-02-19T13:59:19.269Z,45.00
2019-02-19T14:01:50.720Z,45.20
2019-02-19T14:04:22.041Z,46.00
2019-02-19T14:06:56.857Z,45.50
2019-02-19T14:09:28.411Z,44.50
2019-02-19T14:11:58.829Z,44.90
2019-02-19T14:14:33.795Z,45.50
2019-02-19T14:17:04.235Z,45.60
2019-02-19T14:19:38.726Z,45.50
2019-02-19T14:22:10.099Z,45.90
2019-02-19T14:24:57.058Z,45.20
2019-02-19T14:27:41.194Z,46.50
2019-02-19T14:30:25.620Z,46.50
2019-02-19T14:33:05.486Z,46.80
2019-02-19T14:35:42.636Z,46.90
2019-02-19T14:38:13.798Z,46.90
2019-02-19T14:40:44.489Z,47.40
2019-02-19T14:43:32.332Z,48.10
2019-02-19T14:46:22.227Z,47.10
2019-02-19T14:51:49.494Z,47.00
2019-02-19T14:54:25.845Z,46.20
2019-02-19T14:57:16.370Z,46.20
2019-02-19T14:59:54.403Z,46.70
2019-02-19T15:02:41.334Z,44.80
2019-02-19T15:05:26.367Z,46.70
2019-02-19T15:08:13.431Z,47.90
2019-02-19T15:10:49.922Z,47.60
2019-02-19T15:13:23.481Z,49.80
2019-02-19T15:16:04.528Z,52.10
2019-02-19T15:18:36.468Z,52.70
2019-02-19T15:21:16.831Z,54.00
2019-02-19T15:23:50.590Z,53.80
2019-02-19T15:26:31.211Z,54.80
2019-02-19T15:29:06.248Z,54.50
2019-02-19T15:31:39.151Z,55.00
2019-02-19T15:34:10.275Z,55.50
2019-02-19T15:37:00.109Z,54.10
2019-02-19T15:39:35.146Z,53.80
2019-02-19T15:42:26.444Z,54.10
2019-02-19T15:45:34.844Z,55.00
2019-02-19T15:48:11.647Z,55.80
2019-02-19T15:50:44.535Z,56.40
2019-02-19T15:53:32.251Z,57.00
2019-02-19T15:56:41.761Z,57.80
2019-02-19T15:59:29.386Z,58.10
2019-02-19T16:02:12.902Z,58.00
2019-02-19T16:04:47.594Z,58.50
2019-02-19T16:07:29.368Z,58.20
2019-02-19T16:10:19.187Z,58.80
2019-02-19T16:13:03.515Z,59.80
2019-02-19T16:15:48.359Z,59.90
2019-02-19T16:18:35.652Z,60.90
2019-02-19T16:21:26.139Z,60.70
2019-02-19T16:24:01.913Z,61.10
2019-02-19T16:26:49.339Z,61.20
2019-02-19T16:29:33.975Z,61.80
2019-02-19T16:32:05.263Z,61.70
2019-02-19T16:34:45.771Z,62.20
2019-02-19T16:37:17.608Z,62.30
2019-02-19T16:39:52.249Z,62.30
2019-02-19T16:42:38.919Z,62.60
2019-02-19T16:45:15.084Z,63.10
2019-02-19T16:47:47.347Z,62.90
2019-02-19T16:50:24.711Z,63.40
2019-02-19T16:52:56.625Z,63.50
2019-02-19T16:55:36.578Z,63.70
2019-02-19T16:58:08.994Z,63.60
2019-02-19T17:00:41.893Z,63.70
2019-02-19T17:03:17.734Z,63.50
2019-02-19T17:05:55.579Z,63.60
2019-02-19T17:08:30.840Z,63.80
2019-02-19T17:11:07.147Z,63.90
2019-02-19T17:13:58.053Z,64.00
2019-02-19T17:16:40.078Z,63.80
2019-02-19T17:19:19.812Z,63.70
2019-02-19T17:22:04.354Z,63.40
2019-02-19T17:24:39.535Z,63.30
2019-02-19T17:27:25.011Z,63.30
2019-02-19T17:30:15.033Z,63.40
2019-02-19T17:33:05.923Z,63.80
2019-02-19T17:35:43.434Z,63.50
2019-02-19T17:38:18.055Z,63.20
2019-02-19T17:41:04.966Z,63.40
2019-02-19T17:43:38.012Z,63.70
2019-02-19T17:46:15.791Z,63.20
2019-02-19T17:48:47.038Z,63.50
2019-02-19T17:51:23.040Z,63.80
2019-02-19T17:53:54.963Z,63.90
2019-02-19T17:56:28.015Z,63.80
2019-02-19T17:59:03.406Z,64.20
2019-02-19T18:01:37.204Z,64.60
2019-02-19T18:04:11.011Z,64.70
2019-02-19T18:06:42.959Z,64.20
2019-02-19T18:09:33.886Z,65.50
2019-02-19T18:12:26.698Z,65.20
2019-02-19T18:15:02.941Z,64.80
2019-02-19T18:17:37.514Z,64.70
2019-02-19T18:20:09.825Z,64.60
2019-02-19T18:22:42.852Z,65.00
2019-02-19T18:25:13.628Z,64.90
2019-02-19T18:27:45.105Z,64.80
2019-02-19T18:30:15.265Z,64.90
2019-02-19T18:32:46.250Z,65.70
2019-02-19T18:35:16.652Z,67.30
2019-02-19T18:37:47.562Z,68.20
2019-02-19T18:40:20.083Z,68.90
2019-02-19T18:42:50.529Z,69.40
2019-02-19T18:45:21.415Z,70.00
2019-02-19T18:47:54.114Z,70.70
2019-02-19T18:50:28.295Z,71.50
2019-02-19T18:52:58.939Z,72.40
2019-02-19T18:55:30.555Z,73.50
2019-02-19T18:58:03.895Z,74.00
2019-02-19T19:00:35.262Z,74.20
2019-02-19T19:03:06.938Z,74.60
2019-02-19T19:05:37.281Z,75.00
2019-02-19T19:08:11.387Z,75.30
2019-02-19T19:10:43.270Z,75.50
2019-02-19T19:13:15.592Z,76.10
2019-02-19T19:15:47.592Z,76.90
2019-02-19T19:18:19.391Z,77.10
2019-02-19T19:20:50.229Z,77.90
2019-02-19T19:23:21.115Z,78.40
2019-02-19T19:25:55.110Z,78.50
2019-02-19T19:28:26.454Z,79.00
2019-02-19T19:30:56.691Z,79.40
2019-02-19T19:33:26.613Z,79.90
2019-02-19T19:35:59.950Z,80.50
2019-02-19T19:38:30.768Z,80.80
2019-02-19T19:41:01.051Z,80.80
2019-02-19T19:43:33.442Z,80.90
2019-02-19T19:46:04.800Z,81.30
2019-02-19T19:48:36.064Z,82.00
2019-02-19T19:51:17.108Z,81.80
2019-02-19T19:53:43.022Z,82.20
2019-02-19T19:56:15.100Z,82.30
2019-02-19T19:58:47.094Z,82.60
2019-02-19T20:01:17.806Z,82.80
2019-02-19T20:03:49.292Z,83.10
2019-02-19T20:06:20.816Z,83.40
2019-02-19T20:08:51.209Z,84.10
2019-02-19T20:11:21.866Z,84.80
2019-02-19T20:13:53.379Z,85.10
2019-02-19T20:16:24.928Z,85.30
2019-02-19T20:18:56.972Z,85.20
2019-02-19T20:21:27.846Z,85.60
2019-02-19T20:23:58.184Z,85.10
2019-02-19T20:26:30.169Z,84.80
2019-02-19T20:29:03.827Z,84.40
2019-02-19T20:31:36.041Z,84.50
2019-02-19T20:34:06.859Z,84.50
2019-02-19T20:36:36.699Z,84.10
2019-02-19T20:39:09.486Z,84.60
2019-02-19T20:41:40.719Z,84.40
2019-02-19T20:44:11.961Z,84.40
2019-02-19T20:46:42.759Z,84.10
2019-02-19T20:49:14.684Z,83.80
2019-02-19T20:51:44.886Z,83.70
2019-02-19T20:54:16.893Z,83.50
2019-02-19T20:56:48.874Z,83.10
2019-02-19T20:59:21.006Z,82.80
2019-02-19T21:01:52.919Z,82.70
2019-02-19T21:04:22.525Z,82.70
2019-02-19T21:06:53.782Z,82.90
2019-02-19T21:09:25.395Z,82.20
2019-02-19T21:11:56.678Z,82.10
2019-02-19T21:14:48.521Z,81.60
2019-02-19T21:17:20.343Z,81.50
2019-02-19T21:19:52.063Z,81.70
2019-02-19T21:22:22.628Z,82.00
2019-02-19T21:24:55.223Z,82.00
2019-02-19T21:27:28.600Z,82.00
2019-02-19T21:30:02.956Z,81.90
2019-02-19T21:32:34.173Z,81.60
2019-02-19T21:35:05.687Z,81.20
2019-02-19T21:37:36.474Z,81.20
2019-02-19T21:40:10.565Z,81.00
2019-02-19T21:42:41.860Z,80.30
2019-02-19T21:45:13.940Z,80.20
2019-02-19T21:47:46.872Z,80.20
2019-02-19T21:50:19.127Z,80.10
2019-02-19T21:52:51.017Z,80.10
2019-02-19T21:55:23.234Z,80.00
2019-02-19T21:57:57.380Z,79.90
2019-02-19T22:00:27.680Z,80.20
2019-02-19T22:02:59.227Z,80.30
2019-02-19T22:05:32.240Z,80.50
2019-02-19T22:08:02.851Z,80.70
2019-02-19T22:10:34.340Z,81.10
2019-02-19T22:13:04.464Z,81.00
2019-02-19T22:15:34.783Z,81.20
2019-02-19T22:18:05.035Z,81.20
2019-02-19T22:20:52.427Z,81.40
2019-02-19T22:23:22.297Z,81.80
2019-02-19T22:25:53.964Z,81.70
2019-02-19T22:28:24.255Z,81.80
2019-02-19T22:30:54.593Z,81.90
2019-02-19T22:33:24.853Z,81.90
2019-02-19T22:35:55.223Z,81.80
2019-02-19T22:38:25.651Z,81.40
2019-02-19T22:40:55.866Z,81.10
2019-02-19T22:43:26.452Z,80.70
2019-02-19T22:45:58.804Z,80.20
2019-02-19T22:48:30.098Z,79.80
2019-02-19T22:51:00.756Z,79.60
2019-02-19T22:53:38.968Z,79.60
2019-02-19T22:56:15.518Z,79.50
2019-02-19T22:58:45.841Z,79.50
2019-02-19T23:01:22.826Z,79.60
2019-02-19T23:03:56.115Z,79.90
2019-02-19T23:06:27.382Z,80.20
2019-02-19T23:08:57.821Z,80.10
2019-02-19T23:11:27.556Z,80.30
2019-02-19T23:13:58.372Z,80.70
2019-02-19T23:16:28.530Z,80.80
2019-02-19T23:18:59.510Z,80.70
2019-02-19T23:24:52.894Z,80.90
2019-02-19T23:27:23.660Z,80.90
2019-02-19T23:29:54.462Z,81.00
2019-02-19T23:32:25.059Z,81.00
2019-02-19T23:34:57.951Z,81.10
2019-02-19T23:37:29.301Z,81.20
2019-02-19T23:40:02.686Z,81.10
2019-02-19T23:42:32.478Z,81.10
2019-02-19T23:45:03.471Z,81.00
2019-02-19T23:47:35.014Z,80.90
2019-02-19T23:50:05.347Z,80.50
2019-02-19T23:52:35.002Z,80.40
2019-02-19T23:55:07.739Z,80.20
2019-02-19T23:57:38.213Z,80.10
